Terminal Aerodrome Forecast
Issued by NWS

Home | Current Version | Previous Version | Text Only | Print | Product List | Glossary On
Versions: 1 2 3 4 5 6 7 8 9 10 11 12 13 14 15
931
FTUS42 KFFC 091541 AAA
TAFRYY
TAF AMD
KRYY 091541Z 0916/1012 28012G22KT 6SM -SHSN SCT020 OVC030
      TEMPO 0916/0920 3SM -SHSN OVC020
     FM092000 30010KT P6SM -SHSN BKN030 OVC070
     FM100400 30010KT P6SM BKN030=

USA.gov is the U.S. government's official web portal to all federal, state and local government web resources and services.